sensor_id;sensor_type;location;lat;lon;timestamp;pressure;altitude;pressure_sealevel;temperature;humidity
63405;BME280;49541;57.840;12.306;2023-09-12T00:04:50;100133.16;;;19.51;100.00
63405;BME280;49541;57.840;12.306;2023-09-12T00:09:50;100132.41;;;19.70;100.00
63405;BME280;49541;57.840;12.306;2023-09-12T00:14:50;100122.69;;;19.82;100.00
63405;BME280;49541;57.840;12.306;2023-09-12T00:19:51;100127.72;;;19.92;100.00
63405;BME280;49541;57.840;12.306;2023-09-12T00:24:51;100125.72;;;19.59;100.00
63405;BME280;49541;57.840;12.306;2023-09-12T00:29:51;100121.31;;;19.45;100.00
63405;BME280;49541;57.840;12.306;2023-09-12T00:34:51;100125.69;;;19.46;100.00
63405;BME280;49541;57.840;12.306;2023-09-12T00:39:52;100131.91;;;19.47;100.00
63405;BME280;49541;57.840;12.306;2023-09-12T00:44:52;100132.84;;;19.19;100.00
63405;BME280;49541;57.840;12.306;2023-09-12T00:49:52;100134.34;;;19.28;100.00
63405;BME280;49541;57.840;12.306;2023-09-12T00:54:53;100135.53;;;18.84;100.00
63405;BME280;49541;57.840;12.306;2023-09-12T00:59:53;100128.19;;;19.54;100.00
63405;BME280;49541;57.840;12.306;2023-09-12T01:04:55;100118.38;;;20.15;100.00
63405;BME280;49541;57.840;12.306;2023-09-12T01:09:55;100122.75;;;20.16;100.00
63405;BME280;49541;57.840;12.306;2023-09-12T01:14:56;100127.91;;;19.91;100.00
63405;BME280;49541;57.840;12.306;2023-09-12T01:19:56;100119.19;;;20.15;100.00
63405;BME280;49541;57.840;12.306;2023-09-12T01:30:08;100133.31;;;19.97;100.00
63405;BME280;49541;57.840;12.306;2023-09-12T01:35:10;100127.47;;;19.80;100.00
63405;BME280;49541;57.840;12.306;2023-09-12T01:40:10;100139.34;;;19.93;100.00
63405;BME280;49541;57.840;12.306;2023-09-12T01:45:11;100131.22;;;19.86;100.00
63405;BME280;49541;57.840;12.306;2023-09-12T01:50:13;100135.22;;;20.17;100.00
63405;BME280;49541;57.840;12.306;2023-09-12T01:55:13;100139.56;;;20.04;100.00
63405;BME280;49541;57.840;12.306;2023-09-12T02:00:14;100136.66;;;19.99;100.00
63405;BME280;49541;57.840;12.306;2023-09-12T02:05:21;100144.09;;;19.84;100.00
63405;BME280;49541;57.840;12.306;2023-09-12T02:10:22;100130.63;;;20.04;100.00
63405;BME280;49541;57.840;12.306;2023-09-12T02:15:22;100140.13;;;19.73;100.00
63405;BME280;49541;57.840;12.306;2023-09-12T02:20:22;100148.47;;;19.85;100.00
63405;BME280;49541;57.840;12.306;2023-09-12T02:25:22;100143.75;;;20.07;100.00
63405;BME280;49541;57.840;12.306;2023-09-12T02:30:23;100141.03;;;20.27;100.00
63405;BME280;49541;57.840;12.306;2023-09-12T02:35:23;100139.59;;;20.24;100.00
63405;BME280;49541;57.840;12.306;2023-09-12T02:40:23;100139.97;;;20.08;100.00
63405;BME280;49541;57.840;12.306;2023-09-12T02:45:23;100150.78;;;20.28;100.00
63405;BME280;49541;57.840;12.306;2023-09-12T02:50:24;100166.19;;;20.14;100.00
63405;BME280;49541;57.840;12.306;2023-09-12T02:55:24;100174.50;;;20.19;100.00
63405;BME280;49541;57.840;12.306;2023-09-12T03:00:24;100169.50;;;20.23;100.00
63405;BME280;49541;57.840;12.306;2023-09-12T03:05:24;100161.00;;;20.39;100.00
63405;BME280;49541;57.840;12.306;2023-09-12T03:10:24;100189.41;;;19.89;100.00
63405;BME280;49541;57.840;12.306;2023-09-12T03:15:25;100195.53;;;19.62;100.00
63405;BME280;49541;57.840;12.306;2023-09-12T03:20:25;100205.63;;;19.47;100.00
63405;BME280;49541;57.840;12.306;2023-09-12T03:25:25;100205.25;;;19.57;100.00
63405;BME280;49541;57.840;12.306;2023-09-12T03:30:26;100190.19;;;19.76;100.00
63405;BME280;49541;57.840;12.306;2023-09-12T03:35:26;100190.50;;;19.59;100.00
63405;BME280;49541;57.840;12.306;2023-09-12T03:40:30;100188.25;;;19.63;100.00
63405;BME280;49541;57.840;12.306;2023-09-12T03:45:30;100199.81;;;19.50;100.00
63405;BME280;49541;57.840;12.306;2023-09-12T03:50:30;100213.22;;;19.30;100.00
63405;BME280;49541;57.840;12.306;2023-09-12T03:55:30;100207.78;;;19.23;100.00
63405;BME280;49541;57.840;12.306;2023-09-12T04:00:31;100196.63;;;19.33;100.00
63405;BME280;49541;57.840;12.306;2023-09-12T04:05:31;100199.94;;;19.29;100.00
63405;BME280;49541;57.840;12.306;2023-09-12T04:10:32;100193.81;;;19.13;100.00
63405;BME280;49541;57.840;12.306;2023-09-12T04:15:32;100213.41;;;18.94;100.00
63405;BME280;49541;57.840;12.306;2023-09-12T04:20:33;100204.84;;;19.18;100.00
63405;BME280;49541;57.840;12.306;2023-09-12T04:25:33;100197.88;;;19.37;100.00
63405;BME280;49541;57.840;12.306;2023-09-12T04:30:33;100192.94;;;19.41;100.00
63405;BME280;49541;57.840;12.306;2023-09-12T04:35:35;100191.00;;;19.28;100.00
63405;BME280;49541;57.840;12.306;2023-09-12T04:40:35;100184.59;;;19.36;100.00
63405;BME280;49541;57.840;12.306;2023-09-12T04:45:35;100173.09;;;19.62;100.00
63405;BME280;49541;57.840;12.306;2023-09-12T04:50:40;100172.75;;;19.78;100.00
63405;BME280;49541;57.840;12.306;2023-09-12T04:55:40;100181.03;;;19.29;100.00
63405;BME280;49541;57.840;12.306;2023-09-12T05:00:40;100185.22;;;19.38;100.00
63405;BME280;49541;57.840;12.306;2023-09-12T05:05:41;100176.56;;;19.49;100.00
63405;BME280;49541;57.840;12.306;2023-09-12T05:10:41;100172.56;;;19.32;100.00
63405;BME280;49541;57.840;12.306;2023-09-12T05:15:44;100187.03;;;19.24;100.00
63405;BME280;49541;57.840;12.306;2023-09-12T05:20:44;100188.31;;;18.93;100.00
63405;BME280;49541;57.840;12.306;2023-09-12T05:25:44;100191.91;;;19.07;100.00
63405;BME280;49541;57.840;12.306;2023-09-12T05:30:45;100193.38;;;19.10;100.00
63405;BME280;49541;57.840;12.306;2023-09-12T05:35:45;100188.88;;;19.17;100.00
63405;BME280;49541;57.840;12.306;2023-09-12T05:40:45;100200.41;;;19.39;100.00
63405;BME280;49541;57.840;12.306;2023-09-12T05:45:45;100190.34;;;19.19;100.00
63405;BME280;49541;57.840;12.306;2023-09-12T05:50:46;100190.47;;;19.53;100.00
63405;BME280;49541;57.840;12.306;2023-09-12T05:55:46;100198.09;;;19.71;100.00
63405;BME280;49541;57.840;12.306;2023-09-12T06:00:46;100184.41;;;19.86;100.00
63405;BME280;49541;57.840;12.306;2023-09-12T06:05:49;100189.59;;;19.87;100.00
63405;BME280;49541;57.840;12.306;2023-09-12T06:10:50;100192.38;;;20.27;100.00
63405;BME280;49541;57.840;12.306;2023-09-12T06:15:53;100190.75;;;20.33;100.00
63405;BME280;49541;57.840;12.306;2023-09-12T06:20:53;100195.06;;;20.14;100.00
63405;BME280;49541;57.840;12.306;2023-09-12T06:25:53;100197.44;;;20.70;100.00
63405;BME280;49541;57.840;12.306;2023-09-12T06:30:54;100200.28;;;20.22;100.00
63405;BME280;49541;57.840;12.306;2023-09-12T06:35:54;100196.16;;;20.39;100.00
63405;BME280;49541;57.840;12.306;2023-09-12T06:40:54;100185.75;;;20.50;100.00
63405;BME280;49541;57.840;12.306;2023-09-12T06:45:55;100181.19;;;20.50;100.00
63405;BME280;49541;57.840;12.306;2023-09-12T06:50:56;100185.97;;;20.55;100.00
63405;BME280;49541;57.840;12.306;2023-09-12T06:55:56;100194.09;;;20.68;100.00
63405;BME280;49541;57.840;12.306;2023-09-12T07:01:06;100187.00;;;20.94;100.00
63405;BME280;49541;57.840;12.306;2023-09-12T07:06:07;100185.34;;;20.73;100.00
63405;BME280;49541;57.840;12.306;2023-09-12T07:11:08;100188.47;;;20.90;100.00
63405;BME280;49541;57.840;12.306;2023-09-12T07:16:08;100187.19;;;20.39;100.00
63405;BME280;49541;57.840;12.306;2023-09-12T07:21:08;100192.41;;;20.67;100.00
63405;BME280;49541;57.840;12.306;2023-09-12T07:26:12;100201.97;;;20.50;100.00
63405;BME280;49541;57.840;12.306;2023-09-12T07:31:12;100196.81;;;20.68;100.00
63405;BME280;49541;57.840;12.306;2023-09-12T07:36:12;100209.91;;;20.71;100.00
63405;BME280;49541;57.840;12.306;2023-09-12T07:41:12;100195.91;;;21.21;100.00
63405;BME280;49541;57.840;12.306;2023-09-12T07:46:13;100204.00;;;21.27;100.00
63405;BME280;49541;57.840;12.306;2023-09-12T07:51:13;100211.31;;;21.07;100.00
63405;BME280;49541;57.840;12.306;2023-09-12T07:56:14;100213.00;;;20.88;100.00
63405;BME280;49541;57.840;12.306;2023-09-12T08:01:14;100221.56;;;20.78;100.00
63405;BME280;49541;57.840;12.306;2023-09-12T08:06:14;100215.66;;;21.21;100.00
63405;BME280;49541;57.840;12.306;2023-09-12T08:11:14;100223.38;;;21.11;100.00
63405;BME280;49541;57.840;12.306;2023-09-12T08:16:15;100233.16;;;21.12;100.00
63405;BME280;49541;57.840;12.306;2023-09-12T08:21:16;100230.28;;;20.67;100.00
63405;BME280;49541;57.840;12.306;2023-09-12T08:26:16;100246.28;;;20.55;100.00
63405;BME280;49541;57.840;12.306;2023-09-12T08:31:16;100256.44;;;20.40;100.00
63405;BME280;49541;57.840;12.306;2023-09-12T08:36:16;100250.16;;;20.19;100.00
63405;BME280;49541;57.840;12.306;2023-09-12T08:41:17;100264.53;;;19.72;100.00
63405;BME280;49541;57.840;12.306;2023-09-12T08:46:17;100268.56;;;19.96;100.00
63405;BME280;49541;57.840;12.306;2023-09-12T08:51:18;100256.66;;;20.38;100.00
63405;BME280;49541;57.840;12.306;2023-09-12T08:56:19;100241.66;;;20.22;100.00
63405;BME280;49541;57.840;12.306;2023-09-12T09:01:19;100246.25;;;20.42;100.00
63405;BME280;49541;57.840;12.306;2023-09-12T09:06:20;100241.53;;;20.97;100.00
63405;BME280;49541;57.840;12.306;2023-09-12T09:11:21;100237.09;;;21.23;100.00
63405;BME280;49541;57.840;12.306;2023-09-12T09:16:22;100243.13;;;21.18;100.00
63405;BME280;49541;57.840;12.306;2023-09-12T09:21:23;100250.66;;;20.96;100.00
63405;BME280;49541;57.840;12.306;2023-09-12T09:31:45;100252.13;;;20.65;100.00
63405;BME280;49541;57.840;12.306;2023-09-12T09:36:50;100245.22;;;20.50;100.00
63405;BME280;49541;57.840;12.306;2023-09-12T09:41:51;100239.41;;;20.39;100.00
63405;BME280;49541;57.840;12.306;2023-09-12T09:46:54;100228.81;;;20.58;100.00
63405;BME280;49541;57.840;12.306;2023-09-12T09:51:54;100229.06;;;20.76;100.00
63405;BME280;49541;57.840;12.306;2023-09-12T09:56:55;100233.16;;;21.05;100.00
63405;BME280;49541;57.840;12.306;2023-09-12T10:01:57;100224.03;;;20.80;100.00
63405;BME280;49541;57.840;12.306;2023-09-12T10:06:58;100226.13;;;20.71;100.00
63405;BME280;49541;57.840;12.306;2023-09-12T10:11:58;100230.03;;;20.49;100.00
63405;BME280;49541;57.840;12.306;2023-09-12T10:17:01;100230.25;;;20.40;100.00
63405;BME280;49541;57.840;12.306;2023-09-12T10:22:09;100228.59;;;20.33;100.00
63405;BME280;49541;57.840;12.306;2023-09-12T10:27:12;100232.63;;;19.95;100.00
63405;BME280;49541;57.840;12.306;2023-09-12T10:32:12;100244.66;;;19.86;100.00
63405;BME280;49541;57.840;12.306;2023-09-12T10:37:15;100247.09;;;19.74;100.00
63405;BME280;49541;57.840;12.306;2023-09-12T10:42:16;100244.69;;;19.93;100.00
63405;BME280;49541;57.840;12.306;2023-09-12T10:47:16;100228.91;;;19.96;100.00
63405;BME280;49541;57.840;12.306;2023-09-12T10:52:24;100229.34;;;20.07;100.00
63405;BME280;49541;57.840;12.306;2023-09-12T10:57:24;100222.88;;;19.94;100.00
63405;BME280;49541;57.840;12.306;2023-09-12T11:02:34;100229.47;;;19.85;100.00
63405;BME280;49541;57.840;12.306;2023-09-12T11:12:38;100221.47;;;21.32;100.00
63405;BME280;49541;57.840;12.306;2023-09-12T11:17:39;100221.16;;;22.12;100.00
63405;BME280;49541;57.840;12.306;2023-09-12T11:22:43;100214.47;;;21.76;100.00
63405;BME280;49541;57.840;12.306;2023-09-12T11:28:05;100210.53;;;21.72;100.00
63405;BME280;49541;57.840;12.306;2023-09-12T11:33:04;100203.00;;;21.74;100.00
63405;BME280;49541;57.840;12.306;2023-09-12T11:38:09;100215.94;;;21.72;100.00
63405;BME280;49541;57.840;12.306;2023-09-12T11:43:22;100212.16;;;21.79;100.00
63405;BME280;49541;57.840;12.306;2023-09-12T11:48:23;100217.22;;;22.07;100.00
63405;BME280;49541;57.840;12.306;2023-09-12T11:53:24;100228.41;;;22.24;100.00
63405;BME280;49541;57.840;12.306;2023-09-12T11:58:26;100219.81;;;22.59;100.00
63405;BME280;49541;57.840;12.306;2023-09-12T12:03:27;100222.06;;;22.62;100.00
63405;BME280;49541;57.840;12.306;2023-09-12T12:08:27;100231.78;;;23.02;100.00
63405;BME280;49541;57.840;12.306;2023-09-12T12:13:28;100225.16;;;23.53;100.00
63405;BME280;49541;57.840;12.306;2023-09-12T12:18:28;100221.94;;;22.82;100.00
63405;BME280;49541;57.840;12.306;2023-09-12T12:23:28;100232.13;;;23.30;100.00
63405;BME280;49541;57.840;12.306;2023-09-12T12:28:30;100228.84;;;22.53;100.00
63405;BME280;49541;57.840;12.306;2023-09-12T12:33:30;100237.19;;;22.52;100.00
63405;BME280;49541;57.840;12.306;2023-09-12T12:38:34;100228.00;;;22.53;100.00
63405;BME280;49541;57.840;12.306;2023-09-12T12:43:35;100230.44;;;22.61;100.00
63405;BME280;49541;57.840;12.306;2023-09-12T12:48:36;100213.44;;;22.47;100.00
63405;BME280;49541;57.840;12.306;2023-09-12T12:53:39;100200.25;;;22.76;100.00
63405;BME280;49541;57.840;12.306;2023-09-12T12:58:44;100219.69;;;22.98;100.00
63405;BME280;49541;57.840;12.306;2023-09-12T13:03:44;100216.19;;;23.16;100.00
63405;BME280;49541;57.840;12.306;2023-09-12T13:08:45;100214.28;;;23.53;100.00
63405;BME280;49541;57.840;12.306;2023-09-12T13:13:47;100226.41;;;23.39;100.00
63405;BME280;49541;57.840;12.306;2023-09-12T13:18:47;100220.63;;;22.60;100.00
63405;BME280;49541;57.840;12.306;2023-09-12T13:23:48;100224.13;;;23.36;100.00
63405;BME280;49541;57.840;12.306;2023-09-12T13:28:48;100224.25;;;22.97;100.00
63405;BME280;49541;57.840;12.306;2023-09-12T13:33:48;100225.31;;;23.03;100.00
63405;BME280;49541;57.840;12.306;2023-09-12T13:38:52;100224.56;;;23.51;100.00
63405;BME280;49541;57.840;12.306;2023-09-12T13:43:52;100238.38;;;23.49;100.00
63405;BME280;49541;57.840;12.306;2023-09-12T13:48:52;100229.78;;;23.34;100.00
63405;BME280;49541;57.840;12.306;2023-09-12T13:53:52;100239.72;;;23.40;100.00
63405;BME280;49541;57.840;12.306;2023-09-12T13:58:53;100237.69;;;23.36;100.00
63405;BME280;49541;57.840;12.306;2023-09-12T14:03:53;100249.13;;;22.69;100.00
63405;BME280;49541;57.840;12.306;2023-09-12T14:08:53;100236.97;;;22.78;100.00
63405;BME280;49541;57.840;12.306;2023-09-12T14:13:53;100247.91;;;22.01;100.00
63405;BME280;49541;57.840;12.306;2023-09-12T14:18:54;100249.69;;;21.76;100.00
63405;BME280;49541;57.840;12.306;2023-09-12T14:23:54;100264.28;;;21.75;100.00
63405;BME280;49541;57.840;12.306;2023-09-12T14:28:54;100258.91;;;21.61;100.00
63405;BME280;49541;57.840;12.306;2023-09-12T14:33:55;100272.66;;;21.40;100.00
63405;BME280;49541;57.840;12.306;2023-09-12T14:38:56;100262.72;;;21.14;100.00
63405;BME280;49541;57.840;12.306;2023-09-12T14:43:56;100253.19;;;20.91;100.00
63405;BME280;49541;57.840;12.306;2023-09-12T14:48:56;100262.72;;;20.60;100.00
63405;BME280;49541;57.840;12.306;2023-09-12T14:53:57;100274.94;;;20.43;100.00
63405;BME280;49541;57.840;12.306;2023-09-12T14:58:57;100269.19;;;20.93;100.00
63405;BME280;49541;57.840;12.306;2023-09-12T15:03:57;100290.97;;;20.51;100.00
63405;BME280;49541;57.840;12.306;2023-09-12T15:08:58;100284.72;;;20.37;100.00
63405;BME280;49541;57.840;12.306;2023-09-12T15:13:58;100292.53;;;20.12;100.00
63405;BME280;49541;57.840;12.306;2023-09-12T15:18:58;100298.03;;;19.84;100.00
63405;BME280;49541;57.840;12.306;2023-09-12T15:23:59;100280.78;;;19.85;100.00
63405;BME280;49541;57.840;12.306;2023-09-12T15:28:59;100293.88;;;19.81;100.00
63405;BME280;49541;57.840;12.306;2023-09-12T15:34:01;100292.09;;;20.09;100.00
63405;BME280;49541;57.840;12.306;2023-09-12T15:39:01;100297.88;;;19.92;100.00
63405;BME280;49541;57.840;12.306;2023-09-12T15:44:01;100286.03;;;19.58;100.00
63405;BME280;49541;57.840;12.306;2023-09-12T15:49:03;100283.31;;;19.93;100.00
63405;BME280;49541;57.840;12.306;2023-09-12T15:54:03;100288.31;;;20.58;100.00
63405;BME280;49541;57.840;12.306;2023-09-12T15:59:04;100284.72;;;20.31;100.00
63405;BME280;49541;57.840;12.306;2023-09-12T16:04:04;100282.66;;;20.53;100.00
63405;BME280;49541;57.840;12.306;2023-09-12T16:09:04;100292.84;;;20.51;100.00
63405;BME280;49541;57.840;12.306;2023-09-12T16:14:05;100280.53;;;20.28;100.00
63405;BME280;49541;57.840;12.306;2023-09-12T16:19:06;100284.16;;;19.94;100.00
63405;BME280;49541;57.840;12.306;2023-09-12T16:24:09;100279.84;;;19.64;100.00
63405;BME280;49541;57.840;12.306;2023-09-12T16:29:09;100287.69;;;19.59;100.00
63405;BME280;49541;57.840;12.306;2023-09-12T16:34:09;100294.03;;;19.38;100.00
63405;BME280;49541;57.840;12.306;2023-09-12T16:39:10;100292.13;;;19.32;100.00
63405;BME280;49541;57.840;12.306;2023-09-12T16:44:10;100300.78;;;19.56;100.00
63405;BME280;49541;57.840;12.306;2023-09-12T16:49:10;100300.34;;;19.94;100.00
63405;BME280;49541;57.840;12.306;2023-09-12T16:54:10;100298.31;;;20.02;100.00
63405;BME280;49541;57.840;12.306;2023-09-12T16:59:10;100300.34;;;19.94;100.00
63405;BME280;49541;57.840;12.306;2023-09-12T17:04:11;100306.72;;;19.73;100.00
63405;BME280;49541;57.840;12.306;2023-09-12T17:09:11;100303.28;;;19.01;100.00
63405;BME280;49541;57.840;12.306;2023-09-12T17:14:12;100305.63;;;19.04;100.00
63405;BME280;49541;57.840;12.306;2023-09-12T17:19:13;100302.66;;;18.99;100.00
63405;BME280;49541;57.840;12.306;2023-09-12T17:24:13;100299.59;;;19.02;100.00
63405;BME280;49541;57.840;12.306;2023-09-12T17:29:13;100307.09;;;18.85;100.00
63405;BME280;49541;57.840;12.306;2023-09-12T17:34:14;100317.16;;;18.76;100.00
63405;BME280;49541;57.840;12.306;2023-09-12T17:39:14;100308.28;;;18.39;100.00
63405;BME280;49541;57.840;12.306;2023-09-12T17:44:14;100321.31;;;18.57;100.00
63405;BME280;49541;57.840;12.306;2023-09-12T17:49:15;100320.91;;;18.39;100.00
63405;BME280;49541;57.840;12.306;2023-09-12T17:54:15;100330.63;;;18.33;100.00
63405;BME280;49541;57.840;12.306;2023-09-12T17:59:15;100340.66;;;18.61;100.00
63405;BME280;49541;57.840;12.306;2023-09-12T18:04:15;100349.00;;;18.30;100.00
63405;BME280;49541;57.840;12.306;2023-09-12T18:09:15;100346.53;;;18.50;100.00
63405;BME280;49541;57.840;12.306;2023-09-12T18:14:16;100349.44;;;18.85;100.00
63405;BME280;49541;57.840;12.306;2023-09-12T18:19:16;100347.75;;;18.83;100.00
63405;BME280;49541;57.840;12.306;2023-09-12T18:24:16;100359.03;;;19.15;100.00
63405;BME280;49541;57.840;12.306;2023-09-12T18:29:17;100348.69;;;19.19;100.00
63405;BME280;49541;57.840;12.306;2023-09-12T18:34:17;100335.84;;;19.49;100.00
63405;BME280;49541;57.840;12.306;2023-09-12T18:39:17;100343.75;;;19.57;100.00
63405;BME280;49541;57.840;12.306;2023-09-12T18:44:18;100345.13;;;19.18;100.00
63405;BME280;49541;57.840;12.306;2023-09-12T18:49:19;100337.41;;;18.87;100.00
63405;BME280;49541;57.840;12.306;2023-09-12T18:54:19;100348.66;;;19.12;100.00
63405;BME280;49541;57.840;12.306;2023-09-12T18:59:19;100352.91;;;18.78;100.00
63405;BME280;49541;57.840;12.306;2023-09-12T19:04:20;100368.03;;;19.01;100.00
63405;BME280;49541;57.840;12.306;2023-09-12T19:09:21;100378.44;;;18.82;100.00
63405;BME280;49541;57.840;12.306;2023-09-12T19:14:21;100384.16;;;18.58;100.00
63405;BME280;49541;57.840;12.306;2023-09-12T19:19:21;100375.94;;;18.81;100.00
63405;BME280;49541;57.840;12.306;2023-09-12T19:24:22;100386.88;;;18.43;100.00
63405;BME280;49541;57.840;12.306;2023-09-12T19:29:22;100388.00;;;18.49;100.00
63405;BME280;49541;57.840;12.306;2023-09-12T19:34:22;100384.50;;;18.70;100.00
63405;BME280;49541;57.840;12.306;2023-09-12T19:39:22;100388.69;;;18.72;100.00
63405;BME280;49541;57.840;12.306;2023-09-12T19:44:22;100393.66;;;18.54;100.00
63405;BME280;49541;57.840;12.306;2023-09-12T19:49:23;100383.88;;;18.16;100.00
63405;BME280;49541;57.840;12.306;2023-09-12T19:54:23;100386.84;;;18.07;100.00
63405;BME280;49541;57.840;12.306;2023-09-12T19:59:23;100395.66;;;17.71;100.00
63405;BME280;49541;57.840;12.306;2023-09-12T20:04:23;100395.22;;;17.44;100.00
63405;BME280;49541;57.840;12.306;2023-09-12T20:09:25;100409.94;;;17.33;100.00
63405;BME280;49541;57.840;12.306;2023-09-12T20:14:26;100395.56;;;17.64;100.00
63405;BME280;49541;57.840;12.306;2023-09-12T20:19:26;100411.91;;;17.77;100.00
63405;BME280;49541;57.840;12.306;2023-09-12T20:24:26;100412.25;;;17.74;100.00
63405;BME280;49541;57.840;12.306;2023-09-12T20:29:26;100412.22;;;17.97;100.00
63405;BME280;49541;57.840;12.306;2023-09-12T20:34:29;100419.94;;;17.86;100.00
63405;BME280;49541;57.840;12.306;2023-09-12T20:39:29;100426.59;;;18.05;100.00
63405;BME280;49541;57.840;12.306;2023-09-12T20:44:30;100423.91;;;17.52;100.00
63405;BME280;49541;57.840;12.306;2023-09-12T20:49:30;100425.25;;;17.71;100.00
63405;BME280;49541;57.840;12.306;2023-09-12T20:54:31;100417.31;;;17.54;100.00
63405;BME280;49541;57.840;12.306;2023-09-12T20:59:31;100420.47;;;17.43;100.00
63405;BME280;49541;57.840;12.306;2023-09-12T21:04:32;100418.28;;;17.24;100.00
63405;BME280;49541;57.840;12.306;2023-09-12T21:09:32;100418.50;;;17.14;100.00
63405;BME280;49541;57.840;12.306;2023-09-12T21:14:33;100432.06;;;17.20;100.00
63405;BME280;49541;57.840;12.306;2023-09-12T21:19:34;100425.09;;;17.11;100.00
63405;BME280;49541;57.840;12.306;2023-09-12T21:24:35;100427.66;;;17.05;100.00
63405;BME280;49541;57.840;12.306;2023-09-12T21:29:35;100408.72;;;16.98;100.00
63405;BME280;49541;57.840;12.306;2023-09-12T21:34:35;100404.78;;;16.86;100.00
63405;BME280;49541;57.840;12.306;2023-09-12T21:39:36;100410.56;;;16.66;100.00
63405;BME280;49541;57.840;12.306;2023-09-12T21:44:36;100409.13;;;16.55;100.00
63405;BME280;49541;57.840;12.306;2023-09-12T21:49:37;100414.72;;;16.46;100.00
63405;BME280;49541;57.840;12.306;2023-09-12T21:54:37;100419.44;;;16.44;100.00
63405;BME280;49541;57.840;12.306;2023-09-12T21:59:37;100409.38;;;16.37;100.00
63405;BME280;49541;57.840;12.306;2023-09-12T22:04:37;100415.66;;;16.61;100.00
63405;BME280;49541;57.840;12.306;2023-09-12T22:09:37;100413.56;;;16.40;100.00
63405;BME280;49541;57.840;12.306;2023-09-12T22:14:38;100400.94;;;16.17;100.00
63405;BME280;49541;57.840;12.306;2023-09-12T22:19:38;100414.94;;;15.88;100.00
63405;BME280;49541;57.840;12.306;2023-09-12T22:24:39;100410.41;;;15.89;100.00
63405;BME280;49541;57.840;12.306;2023-09-12T22:29:39;100414.97;;;15.72;100.00
63405;BME280;49541;57.840;12.306;2023-09-12T22:34:39;100409.25;;;15.83;100.00
63405;BME280;49541;57.840;12.306;2023-09-12T22:39:39;100404.72;;;15.59;100.00
63405;BME280;49541;57.840;12.306;2023-09-12T22:44:39;100398.88;;;15.55;100.00
63405;BME280;49541;57.840;12.306;2023-09-12T22:49:40;100406.59;;;15.75;100.00
63405;BME280;49541;57.840;12.306;2023-09-12T22:54:40;100406.56;;;15.59;100.00
63405;BME280;49541;57.840;12.306;2023-09-12T22:59:40;100403.22;;;15.48;100.00
63405;BME280;49541;57.840;12.306;2023-09-12T23:04:40;100410.63;;;15.38;100.00
63405;BME280;49541;57.840;12.306;2023-09-12T23:09:41;100413.97;;;15.15;100.00
63405;BME280;49541;57.840;12.306;2023-09-12T23:14:41;100414.97;;;15.47;100.00
63405;BME280;49541;57.840;12.306;2023-09-12T23:19:41;100417.34;;;15.26;100.00
63405;BME280;49541;57.840;12.306;2023-09-12T23:24:41;100395.53;;;15.21;100.00
63405;BME280;49541;57.840;12.306;2023-09-12T23:29:41;100396.19;;;14.82;100.00
63405;BME280;49541;57.840;12.306;2023-09-12T23:34:41;100405.91;;;15.07;100.00
63405;BME280;49541;57.840;12.306;2023-09-12T23:39:42;100392.03;;;14.95;100.00
63405;BME280;49541;57.840;12.306;2023-09-12T23:44:42;100392.69;;;15.14;100.00
63405;BME280;49541;57.840;12.306;2023-09-12T23:49:42;100386.13;;;14.67;100.00
63405;BME280;49541;57.840;12.306;2023-09-12T23:54:42;100385.13;;;14.85;100.00
63405;BME280;49541;57.840;12.306;2023-09-12T23:59:43;100376.41;;;14.66;100.00
